Time;durP1;ratioP1;P1;durP2;ratioP2;P2;SDS_P1;SDS_P2;PMS_P1;PMS_P2;Temp;Humidity;BMP_temperature;BMP_pressure;BME280_temperature;BME280_humidity;BME280_pressure;Samples;Min_cycle;Max_cycle;Signal;HPM_P1;HPM_P2
2023/01/11 00:01:59;;;;;;;4.00;2.17;;;;;;;8.81;81.03;99010.63;5034074;28;20057;-77
2023/01/11 00:04:29;;;;;;;3.30;2.50;;;;;;;8.82;80.95;99010.53;5034103;28;20088;-78
2023/01/11 00:06:56;;;;;;;2.67;2.10;;;;;;;8.85;81.20;99009.50;5032391;28;20470;-77
2023/01/11 00:09:23;;;;;;;2.88;2.28;;;;;;;8.90;81.26;99003.97;5033644;28;20053;-77
2023/01/11 00:11:50;;;;;;;2.28;2.00;;;;;;;8.93;81.27;99001.16;5033686;28;20081;-78
2023/01/11 00:14:16;;;;;;;5.28;2.55;;;;;;;8.93;81.09;99023.00;5033728;28;20064;-78
2023/01/11 00:16:43;;;;;;;2.83;2.08;;;;;;;8.97;81.36;99006.13;5033627;28;20056;-78
2023/01/11 00:19:10;;;;;;;5.65;2.30;;;;;;;9.01;80.99;99016.44;5033873;28;20054;-77
2023/01/11 00:21:36;;;;;;;2.85;1.80;;;;;;;9.04;81.16;99000.50;5033584;28;20057;-77
2023/01/11 00:24:03;;;;;;;2.88;2.20;;;;;;;9.07;80.96;98995.88;5033561;28;20144;-78
2023/01/11 00:26:29;;;;;;;3.13;2.17;;;;;;;9.12;81.40;98992.94;5033550;28;20071;-78
2023/01/11 00:28:56;;;;;;;4.93;2.67;;;;;;;9.15;81.17;98989.31;5033374;28;20148;-78
2023/01/11 00:31:23;;;;;;;2.15;1.95;;;;;;;9.16;81.40;98978.69;5033526;28;20050;-78
2023/01/11 00:33:49;;;;;;;2.60;2.25;;;;;;;9.22;81.49;98974.84;5033457;28;20076;-78
2023/01/11 00:36:16;;;;;;;3.10;2.20;;;;;;;9.25;81.08;98979.91;5078380;22;20144;-76
2023/01/11 00:38:42;;;;;;;3.30;2.20;;;;;;;9.29;80.96;98980.53;5004929;28;20061;-76
2023/01/11 00:49:27;;;;;;;2.28;1.70;;;;;;;9.33;80.50;98982.03;5013435;28;20093;-76
2023/01/11 00:51:53;;;;;;;1.95;1.77;;;;;;;9.35;80.64;98990.66;4995717;28;20485;-77
2023/01/11 00:54:20;;;;;;;3.13;1.85;;;;;;;9.36;80.89;98987.09;5013558;28;20141;-76
2023/01/11 00:56:47;;;;;;;3.08;2.03;;;;;;;9.36;80.75;98968.69;5012984;28;20058;-75
2023/01/11 00:59:13;;;;;;;3.47;1.80;;;;;;;9.37;80.72;98968.59;5013351;28;20057;-76
2023/01/11 01:01:40;;;;;;;2.95;1.95;;;;;;;9.38;80.98;98957.16;5012295;28;20054;-77
2023/01/11 01:04:06;;;;;;;2.72;1.90;;;;;;;9.39;81.03;98960.63;5013104;28;20529;-77
2023/01/11 01:06:33;;;;;;;2.17;1.90;;;;;;;9.41;81.21;98966.63;5012721;28;20141;-78
2023/01/11 01:09:02;;;;;;;4.15;2.22;;;;;;;9.43;81.19;98948.13;5011978;28;20065;-77
2023/01/11 01:11:29;;;;;;;1.95;1.80;;;;;;;9.44;81.07;98955.91;5012980;28;20057;-78
2023/01/11 01:16:41;;;;;;;3.63;1.77;;;;;;;9.46;81.30;98961.91;5012986;28;20054;-77
2023/01/11 01:19:08;;;;;;;2.08;1.85;;;;;;;9.50;81.29;98957.31;5012807;28;20561;-77
2023/01/11 01:21:36;;;;;;;4.82;1.85;;;;;;;9.51;81.12;98957.22;5012765;28;20552;-77
2023/01/11 01:24:03;;;;;;;2.03;1.75;;;;;;;9.55;81.05;98952.59;5012822;28;20054;-76
2023/01/11 01:26:29;;;;;;;3.25;1.95;;;;;;;9.57;81.28;98952.50;5013037;28;20105;-77
2023/01/11 01:28:56;;;;;;;2.17;1.55;;;;;;;9.59;80.98;98947.97;5012337;28;20062;-77
2023/01/11 01:31:22;;;;;;;2.65;1.85;;;;;;;9.60;81.22;98952.25;5012644;28;20108;-76
2023/01/11 01:33:49;;;;;;;1.58;1.48;;;;;;;9.63;81.26;98954.69;5012667;28;20157;-76
2023/01/11 01:36:15;;;;;;;5.22;1.65;;;;;;;9.66;81.14;98951.88;5012619;28;20455;-77
2023/01/11 01:38:42;;;;;;;2.35;1.52;;;;;;;9.68;80.93;98952.59;5012351;28;20108;-76
2023/01/11 01:41:11;;;;;;;5.70;1.75;;;;;;;9.68;81.09;98942.09;5012559;28;20140;-76
2023/01/11 01:43:46;;;;;;;3.33;1.40;;;;;;;9.63;80.29;98947.66;5012184;28;20502;-77
2023/01/11 01:46:14;;;;;;;1.67;1.40;;;;;;;9.68;80.91;98941.28;5012496;28;20054;-76
2023/01/11 01:48:45;;;;;;;2.20;1.30;;;;;;;9.71;80.97;98946.28;5011832;28;20211;-76
2023/01/11 01:51:17;;;;;;;1.63;1.35;;;;;;;9.72;80.77;98937.50;5012308;28;20065;-76
2023/01/11 01:53:47;;;;;;;3.13;1.40;;;;;;;9.75;80.92;98934.63;5012206;28;20053;-77
2023/01/11 01:56:19;;;;;;;2.97;1.30;;;;;;;9.74;80.44;98946.09;5012014;28;20062;-78
2023/01/11 01:58:57;;;;;;;2.38;1.27;;;;;;;9.75;80.12;98926.75;5012263;28;20061;-77
2023/01/11 02:04:13;;;;;;;1.88;1.15;;;;;;;9.83;80.60;98926.25;5011978;28;20062;-76
2023/01/11 02:06:41;;;;;;;2.55;1.35;;;;;;;9.87;81.16;98933.00;5011723;28;20137;-76
2023/01/11 02:09:35;;;;;;;1.25;1.05;;;;;;;9.86;80.08;98921.63;5011716;28;20053;-76
2023/01/11 02:12:02;;;;;;;2.42;1.30;;;;;;;9.93;81.14;98922.06;5011022;28;20145;-76
2023/01/11 02:14:31;;;;;;;5.22;1.10;;;;;;;9.95;81.10;98909.66;5011699;28;20546;-76
2023/01/11 02:16:57;;;;;;;1.08;0.98;;;;;;;10.00;81.48;98906.69;5012151;28;20057;-76
2023/01/11 02:19:49;;;;;;;1.63;0.90;;;;;;;9.99;80.27;98907.66;5011569;28;20058;-76
2023/01/11 02:22:38;;;;;;;1.85;1.08;;;;;;;10.03;79.75;98906.50;5010648;28;20057;-76
2023/01/11 02:25:07;;;;;;;1.02;0.90;;;;;;;10.10;81.19;98920.88;5010243;28;20062;-77
2023/01/11 02:28:22;;;;;;;3.22;1.30;;;;;;;10.08;80.10;98903.53;5011351;28;20413;-78
2023/01/11 02:31:12;;;;;;;0.88;0.88;;;;;;;10.12;79.80;98889.22;5007941;28;20065;-77
2023/01/11 02:34:13;;;;;;;3.10;1.00;;;;;;;10.11;79.46;98903.34;5011847;28;20057;-77
2023/01/11 02:36:47;;;;;;;1.77;0.80;;;;;;;10.20;80.46;98891.34;5009792;28;20050;-76
2023/01/11 02:39:21;;;;;;;2.15;0.80;;;;;;;10.25;81.27;98889.22;5011578;28;20541;-78
2023/01/11 02:45:04;;;;;;;1.48;1.15;;;;;;;10.27;80.28;98882.06;5011495;28;20065;-78
2023/01/11 02:47:38;;;;;;;2.25;0.80;;;;;;;10.30;80.23;98873.97;5011187;28;20046;-77
2023/01/11 02:50:37;;;;;;;1.70;0.90;;;;;;;10.31;79.87;98880.91;5011249;28;20486;-77
2023/01/11 02:53:27;;;;;;;1.75;1.25;;;;;;;10.38;81.10;98879.53;4984633;28;20062;-77
2023/01/11 02:55:58;;;;;;;1.83;0.98;;;;;;;10.38;80.57;98886.56;5000598;28;20057;-78
2023/01/11 02:58:28;;;;;;;1.00;0.88;;;;;;;10.38;80.80;98876.91;5010042;28;20530;-77
2023/01/11 03:00:57;;;;;;;2.60;1.20;;;;;;;10.46;81.22;98862.41;5011278;28;20068;-77
2023/01/11 03:03:26;;;;;;;2.72;0.68;;;;;;;10.48;80.84;98879.75;4993676;28;20422;-77
2023/01/11 03:06:33;;;;;;;1.42;1.05;;;;;;;10.47;79.59;98872.78;5011279;28;20464;-76
2023/01/11 03:09:13;;;;;;;5.25;0.90;;;;;;;10.50;79.63;98875.22;4989657;28;20141;-77
2023/01/11 03:14:48;;;;;;;1.20;0.95;;;;;;;10.53;80.73;98871.53;5011020;28;20142;-77
2023/01/11 03:17:27;;;;;;;0.98;0.93;;;;;;;10.51;80.16;98861.09;5010704;28;20061;-76
2023/01/11 03:20:16;;;;;;;2.28;0.90;;;;;;;10.53;80.63;98859.22;5009928;28;20061;-76
2023/01/11 03:23:05;;;;;;;0.82;0.82;;;;;;;10.53;80.33;98850.47;4997110;28;20057;-76
2023/01/11 03:26:05;;;;;;;1.48;0.90;;;;;;;10.52;80.44;98861.94;5009587;28;20054;-76
2023/01/11 03:29:04;;;;;;;1.20;0.90;;;;;;;10.51;80.11;98860.28;5010740;28;20056;-76
2023/01/11 03:31:47;;;;;;;1.75;0.95;;;;;;;10.54;80.56;98852.16;5010787;28;20077;-75
2023/01/11 03:34:34;;;;;;;1.10;1.00;;;;;;;10.52;80.67;98854.06;4993222;28;20049;-75
2023/01/11 03:37:14;;;;;;;1.15;1.02;;;;;;;10.51;80.63;98852.38;5010664;28;20935;-76
2023/01/11 03:39:47;;;;;;;1.48;1.30;;;;;;;10.51;81.00;98858.47;5010613;28;20058;-76
2023/01/11 03:42:16;;;;;;;2.45;1.13;;;;;;;10.53;81.42;98855.72;5010930;28;20081;-76
2023/01/11 03:44:45;;;;;;;2.10;1.20;;;;;;;10.53;81.44;98866.25;5010391;28;20054;-76
2023/01/11 03:47:15;;;;;;;1.50;1.17;;;;;;;10.51;81.52;98861.09;5010876;28;20080;-76
2023/01/11 03:49:50;;;;;;;1.63;1.52;;;;;;;10.49;81.48;98860.38;5010695;28;20096;-76
2023/01/11 03:52:21;;;;;;;1.63;1.13;;;;;;;10.50;81.55;98859.44;5011078;28;20146;-75
2023/01/11 03:54:48;;;;;;;1.27;1.10;;;;;;;10.52;81.84;98865.44;5010563;28;20501;-76
2023/01/11 03:57:22;;;;;;;1.55;1.20;;;;;;;10.50;81.68;98862.06;5009443;28;20081;-76
2023/01/11 03:59:49;;;;;;;1.05;1.00;;;;;;;10.52;82.11;98854.06;5010696;28;20076;-76
2023/01/11 04:02:26;;;;;;;1.40;1.30;;;;;;;10.49;81.77;98849.84;5010836;28;20145;-76
2023/01/11 04:04:52;;;;;;;1.52;1.33;;;;;;;10.53;82.00;98861.00;5010303;28;20089;-76
2023/01/11 04:07:19;;;;;;;1.33;1.23;;;;;;;10.51;82.13;98861.09;5010029;28;20053;-76
2023/01/11 04:09:46;;;;;;;1.95;1.35;;;;;;;10.51;82.12;98855.84;5010262;28;20057;-76
2023/01/11 04:12:12;;;;;;;2.83;1.80;;;;;;;10.50;82.35;98851.53;5010567;28;20068;-76
2023/01/11 04:14:38;;;;;;;1.63;1.48;;;;;;;10.52;82.32;98841.75;5010455;28;20093;-76
2023/01/11 04:17:05;;;;;;;1.73;1.63;;;;;;;10.52;82.48;98860.16;5010165;28;20519;-77
2023/01/11 04:19:32;;;;;;;1.40;1.30;;;;;;;10.52;82.50;98864.59;5010518;28;20085;-77
2023/01/11 04:21:58;;;;;;;1.83;1.60;;;;;;;10.52;82.34;98854.91;5010362;28;20410;-77
2023/01/11 04:24:25;;;;;;;2.70;1.75;;;;;;;10.52;82.62;98849.66;5010568;28;20068;-78
2023/01/11 04:26:51;;;;;;;1.83;1.60;;;;;;;10.53;82.57;98882.03;5010196;28;20104;-77
2023/01/11 04:29:18;;;;;;;1.58;1.48;;;;;;;10.54;82.50;98858.25;5010389;28;20061;-77
2023/01/11 04:31:44;;;;;;;1.77;1.67;;;;;;;10.55;82.63;98844.16;5010224;28;20076;-76
2023/01/11 04:34:11;;;;;;;1.70;1.60;;;;;;;10.55;82.56;98862.56;5010424;28;20065;-77
2023/01/11 04:36:39;;;;;;;1.73;1.55;;;;;;;10.57;82.61;98857.19;4995226;28;20068;-76
2023/01/11 04:39:09;;;;;;;1.92;1.80;;;;;;;10.57;82.75;98862.47;5013212;28;20614;-76
2023/01/11 04:44:22;;;;;;;2.75;1.80;;;;;;;10.58;82.77;98856.25;5013468;28;20052;-76
2023/01/11 04:46:49;;;;;;;1.92;1.70;;;;;;;10.60;83.00;98874.56;5013063;28;20395;-76
2023/01/11 04:49:16;;;;;;;1.77;1.67;;;;;;;10.61;83.02;98871.00;5013264;28;20060;-75
2023/01/11 04:51:42;;;;;;;1.55;1.45;;;;;;;10.63;83.13;98845.41;5018212;28;20054;-76
2023/01/11 04:54:10;;;;;;;2.22;1.70;;;;;;;10.65;83.19;98851.41;5012394;28;20054;-75
2023/01/11 04:56:37;;;;;;;2.13;2.00;;;;;;;10.64;83.21;98847.91;5013397;28;20054;-76
2023/01/11 04:59:03;;;;;;;1.95;1.80;;;;;;;10.67;83.23;98852.97;5013484;28;20060;-76
2023/01/11 05:01:30;;;;;;;3.03;2.30;;;;;;;10.70;83.11;98865.06;5003917;28;20502;-76
2023/01/11 05:03:56;;;;;;;4.65;2.20;;;;;;;10.71;83.14;98840.41;5011870;28;20550;-76
2023/01/11 05:06:23;;;;;;;2.17;2.05;;;;;;;10.74;83.07;98857.78;5013131;28;20050;-77
2023/01/11 05:08:49;;;;;;;3.00;2.80;;;;;;;10.76;83.08;98855.88;5012911;28;20110;-76
2023/01/11 05:11:16;;;;;;;2.33;2.13;;;;;;;10.77;83.10;98860.19;5013113;28;20049;-76
2023/01/11 05:13:44;;;;;;;2.72;2.53;;;;;;;10.77;83.06;98861.03;5013070;28;20096;-76
2023/01/11 05:16:24;;;;;;;2.92;2.72;;;;;;;10.78;82.98;98857.47;5012784;28;20136;-76
2023/01/11 05:18:53;;;;;;;2.60;2.40;;;;;;;10.81;83.10;98862.47;5012696;28;20092;-76
2023/01/11 05:21:26;;;;;;;2.42;2.10;;;;;;;10.82;82.95;98863.34;5012952;28;20081;-76
2023/01/11 05:23:53;;;;;;;3.00;2.70;;;;;;;10.86;83.22;98862.16;5012878;28;20058;-75
2023/01/11 05:26:22;;;;;;;2.67;2.47;;;;;;;10.87;83.01;98855.94;5012798;28;20058;-75
2023/01/11 05:28:50;;;;;;;2.90;2.70;;;;;;;10.89;83.12;98866.34;5012290;28;20061;-76
2023/01/11 05:31:17;;;;;;;3.25;2.88;;;;;;;10.91;83.32;98856.53;5012614;28;20062;-75
2023/01/11 05:33:44;;;;;;;4.03;3.22;;;;;;;10.91;83.10;98865.28;5012763;28;20084;-76
2023/01/11 05:36:17;;;;;;;3.25;2.90;;;;;;;10.92;83.10;98860.88;5012500;28;20483;-76
2023/01/11 05:38:47;;;;;;;;;;;;;;;10.95;82.80;98856.22;5012843;28;20050;-76
2023/01/11 05:41:15;;;;;;;3.63;3.33;;;;;;;11.00;83.29;98853.25;5015452;28;19925;-76
2023/01/11 05:46:32;;;;;;;3.60;3.15;;;;;;;11.02;83.20;98850.47;5015241;28;20058;-76
2023/01/11 05:49:00;;;;;;;3.35;3.15;;;;;;;11.02;83.25;98856.59;5010906;28;20128;-76
2023/01/11 05:51:31;;;;;;;4.00;3.70;;;;;;;11.04;83.13;98872.28;5012257;28;20076;-75
2023/01/11 05:53:59;;;;;;;5.28;3.40;;;;;;;11.03;83.29;98874.06;4994703;28;20081;-75
2023/01/11 05:56:26;;;;;;;3.80;3.50;;;;;;;11.05;83.31;98855.53;5021250;28;20065;-76
2023/01/11 05:58:53;;;;;;;3.65;3.35;;;;;;;11.08;83.06;98844.78;5002555;28;20072;-76
2023/01/11 06:01:21;;;;;;;4.00;3.63;;;;;;;11.10;83.33;98855.22;4994303;28;20108;-75
2023/01/11 06:03:48;;;;;;;3.70;3.40;;;;;;;11.12;83.33;98848.88;5011991;28;20414;-76
2023/01/11 06:06:16;;;;;;;3.55;3.33;;;;;;;11.14;83.25;98857.47;5011905;28;20062;-76
2023/01/11 06:08:42;;;;;;;4.00;3.70;;;;;;;11.16;83.29;98854.75;5011987;28;20741;-75
2023/01/11 06:11:09;;;;;;;4.40;3.60;;;;;;;11.17;83.29;98859.91;5011977;28;20204;-75
2023/01/11 06:13:35;;;;;;;4.10;3.80;;;;;;;11.19;83.35;98851.88;5012015;28;20060;-75
2023/01/11 06:16:11;;;;;;;3.80;3.50;;;;;;;11.18;83.04;98855.47;5009784;28;20049;-76
2023/01/11 06:18:43;;;;;;;3.88;3.53;;;;;;;11.20;83.32;98859.69;5011368;28;20141;-75
2023/01/11 06:21:11;;;;;;;4.30;4.00;;;;;;;11.24;83.27;98856.81;4990276;28;20105;-75
2023/01/11 06:23:41;;;;;;;3.90;3.60;;;;;;;11.24;83.40;98868.19;5003324;28;20066;-76
2023/01/11 06:26:10;;;;;;;3.67;3.38;;;;;;;11.26;83.23;98874.19;5006269;28;20050;-75
2023/01/11 06:28:37;;;;;;;4.68;4.32;;;;;;;11.28;83.27;98876.69;5008451;28;20506;-75
2023/01/11 06:31:04;;;;;;;4.97;4.63;;;;;;;11.29;83.36;98881.84;5010802;28;20064;-76
2023/01/11 06:33:31;;;;;;;5.57;5.07;;;;;;;11.32;83.32;98878.16;5011674;28;20058;-75
2023/01/11 06:38:30;;;;;;;5.32;4.85;;;;;;;11.33;83.48;98870.13;4986600;23;20060;-77
2023/01/11 06:40:59;;;;;;;4.93;4.45;;;;;;;11.36;83.34;98873.50;5021447;28;20048;-77
2023/01/11 06:43:26;;;;;;;5.53;4.90;;;;;;;11.38;83.71;98876.84;5013199;28;20064;-78
2023/01/11 06:45:54;;;;;;;5.03;4.63;;;;;;;11.39;83.76;98887.28;5012648;28;20488;-77
2023/01/11 06:48:21;;;;;;;5.30;4.90;;;;;;;11.41;83.65;98889.81;5030605;28;20111;-77
2023/01/11 06:50:49;;;;;;;5.50;5.10;;;;;;;11.43;83.44;98877.34;5030629;28;20096;-77
2023/01/11 06:53:16;;;;;;;6.15;5.65;;;;;;;11.45;83.53;98878.91;5030883;28;20049;-77
2023/01/11 06:55:43;;;;;;;6.10;5.60;;;;;;;11.46;83.58;98903.47;5030779;28;20068;-76
2023/01/11 06:58:10;;;;;;;6.47;5.30;;;;;;;11.48;83.51;98885.78;5030096;28;20057;-77
2023/01/11 07:00:37;;;;;;;6.45;5.90;;;;;;;11.51;83.56;98887.34;5013168;28;20569;-77
2023/01/11 07:03:05;;;;;;;7.15;6.55;;;;;;;11.52;83.66;98895.13;5031013;28;20049;-76
2023/01/11 07:05:33;;;;;;;7.57;6.88;;;;;;;11.54;83.55;98887.94;5030601;28;20111;-77
2023/01/11 07:08:00;;;;;;;7.95;7.20;;;;;;;11.56;83.55;98895.72;5013135;28;20100;-77
2023/01/11 07:10:27;;;;;;;7.75;7.15;;;;;;;11.56;83.57;98899.19;5030515;28;20460;-77
2023/01/11 07:12:53;;;;;;;7.28;6.68;;;;;;;11.58;83.35;98899.94;5030579;28;20144;-77
2023/01/11 07:15:20;;;;;;;8.00;7.22;;;;;;;11.62;83.48;98907.63;5030761;28;20049;-76
2023/01/11 07:17:48;;;;;;;8.15;7.45;;;;;;;11.63;83.66;98901.38;5030784;28;20104;-76
2023/01/11 07:20:15;;;;;;;7.47;6.72;;;;;;;11.65;83.66;98888.91;5013360;28;20049;-77
2023/01/11 07:22:41;;;;;;;7.78;7.13;;;;;;;11.67;83.53;98897.56;5030686;28;20057;-77
2023/01/11 07:25:08;;;;;;;7.93;7.22;;;;;;;11.69;83.54;98896.47;5030497;28;20086;-77
2023/01/11 07:27:34;;;;;;;7.60;7.00;;;;;;;11.70;83.58;98898.16;5030441;28;20069;-77
2023/01/11 07:30:03;;;;;;;8.60;7.90;;;;;;;11.72;83.63;98903.31;5013395;28;20141;-77
2023/01/11 07:32:30;;;;;;;8.02;7.32;;;;;;;11.74;83.56;98914.59;5030823;28;20100;-77
2023/01/11 07:35:10;;;;;;;8.73;7.85;;;;;;;11.76;83.39;98919.72;5015073;28;20049;-77
2023/01/11 07:37:40;;;;;;;9.00;8.20;;;;;;;11.80;83.41;98923.81;5015829;28;20054;-76
2023/01/11 07:40:25;;;;;;;8.73;8.02;;;;;;;11.80;83.42;98922.03;5017546;28;20088;-77
2023/01/11 07:43:13;;;;;;;8.27;7.57;;;;;;;11.81;83.25;98926.34;5031011;28;20412;-77
2023/01/11 07:45:53;;;;;;;8.30;7.60;;;;;;;11.84;83.44;98933.19;5032682;28;20077;-76
2023/01/11 07:48:31;;;;;;;8.07;7.35;;;;;;;11.86;83.35;98926.81;5033047;28;20672;-76
2023/01/11 07:51:01;;;;;;;7.95;7.25;;;;;;;11.89;83.58;98930.22;5032824;28;20050;-76
2023/01/11 07:53:31;;;;;;;8.85;8.05;;;;;;;11.92;83.55;98935.25;5031067;28;20062;-77
2023/01/11 07:55:58;;;;;;;8.73;7.93;;;;;;;11.92;83.46;98943.16;5030224;28;20049;-76
2023/01/11 07:58:24;;;;;;;8.63;7.85;;;;;;;11.94;83.47;98943.88;5030066;28;20063;-76
2023/01/11 08:00:51;;;;;;;8.43;7.72;;;;;;;11.95;83.25;98938.50;5029908;28;20065;-76
2023/01/11 08:03:17;;;;;;;8.13;7.32;;;;;;;11.98;83.31;98948.81;5030101;28;20236;-77
2023/01/11 08:05:49;;;;;;;9.07;8.13;;;;;;;11.98;83.16;98932.13;5030180;28;20050;-76
2023/01/11 08:08:16;;;;;;;8.10;7.40;;;;;;;12.02;83.33;98944.13;5030070;28;20054;-77
2023/01/11 08:10:42;;;;;;;8.35;7.55;;;;;;;12.03;83.17;98943.16;5032878;28;20060;-76
2023/01/11 08:15:58;;;;;;;7.43;6.72;;;;;;;12.05;83.14;98949.22;5033915;28;20152;-77
2023/01/11 08:18:25;;;;;;;8.98;7.15;;;;;;;12.07;83.22;98951.75;5033569;28;20060;-76
2023/01/11 08:20:52;;;;;;;8.18;7.03;;;;;;;12.08;83.30;98956.06;5033843;28;20501;-76
2023/01/11 08:23:19;;;;;;;8.52;6.90;;;;;;;12.10;83.38;98962.03;5033570;28;20053;-77
2023/01/11 08:25:45;;;;;;;8.15;7.38;;;;;;;12.11;83.31;98968.97;5033492;28;20084;-76
2023/01/11 08:28:12;;;;;;;9.40;7.30;;;;;;;12.13;83.36;98975.00;5033322;28;20064;-76
2023/01/11 08:30:38;;;;;;;7.93;6.97;;;;;;;12.14;83.47;98963.47;5033388;28;20490;-77
2023/01/11 08:33:05;;;;;;;7.78;6.85;;;;;;;12.17;83.54;98957.13;5033609;28;20064;-76
2023/01/11 08:35:37;;;;;;;9.07;7.13;;;;;;;12.17;83.37;98946.56;5033402;28;20068;-76
2023/01/11 08:38:04;;;;;;;7.38;6.60;;;;;;;12.21;83.42;98935.69;5033529;28;20061;-77
2023/01/11 08:40:30;;;;;;;9.20;6.88;;;;;;;12.23;83.33;98952.22;5033338;28;20068;-76
2023/01/11 08:42:57;;;;;;;8.65;6.88;;;;;;;12.27;83.33;98957.28;5033390;28;20144;-76
2023/01/11 08:45:24;;;;;;;9.10;6.97;;;;;;;12.29;82.98;98968.56;5033348;28;20057;-76
2023/01/11 08:47:51;;;;;;;7.32;6.60;;;;;;;12.30;83.26;98970.22;5015546;28;20061;-76
2023/01/11 08:50:18;;;;;;;7.05;6.35;;;;;;;12.31;83.18;98959.56;5015494;28;20637;-76
2023/01/11 08:52:47;;;;;;;7.60;6.53;;;;;;;12.32;83.15;98968.31;5032960;28;20056;-76
2023/01/11 08:55:13;;;;;;;8.23;6.90;;;;;;;12.34;83.11;98974.31;5015559;28;20088;-77
2023/01/11 08:57:40;;;;;;;8.13;6.85;;;;;;;12.34;82.78;98975.13;5033050;28;20115;-77
2023/01/11 09:00:08;;;;;;;11.02;6.53;;;;;;;12.35;83.00;98982.13;5033007;28;20097;-76
2023/01/11 09:02:35;;;;;;;7.68;6.60;;;;;;;12.38;82.93;98995.06;5033092;28;20049;-77
2023/01/11 09:05:01;;;;;;;14.85;6.55;;;;;;;12.40;82.85;98986.22;5032950;28;20057;-76
2023/01/11 09:07:28;;;;;;;9.18;6.55;;;;;;;12.42;82.85;98987.78;5015171;28;20405;-76
2023/01/11 09:09:54;;;;;;;8.25;6.43;;;;;;;12.44;82.78;99004.31;5032698;28;20062;-76
2023/01/11 09:12:21;;;;;;;11.35;6.78;;;;;;;12.46;82.72;99004.19;5032902;28;20057;-76
2023/01/11 09:14:48;;;;;;;8.88;6.57;;;;;;;12.47;82.52;99005.88;5032477;28;20553;-76
2023/01/11 09:17:14;;;;;;;7.13;6.38;;;;;;;12.48;82.52;99010.19;5015018;28;20053;-76
2023/01/11 09:19:40;;;;;;;7.65;6.53;;;;;;;12.49;82.44;99011.88;5032537;28;20148;-76
2023/01/11 09:22:07;;;;;;;11.35;6.35;;;;;;;12.48;82.06;99016.31;5031867;28;20050;-76
2023/01/11 09:24:34;;;;;;;10.68;6.80;;;;;;;12.50;82.34;99022.34;5032699;28;20136;-77
2023/01/11 09:27:00;;;;;;;12.23;6.53;;;;;;;12.50;82.41;99032.03;5014735;28;20057;-76
2023/01/11 09:29:27;;;;;;;11.88;6.55;;;;;;;12.50;82.38;99040.81;5032438;28;20145;-77
2023/01/11 09:31:53;;;;;;;10.50;6.78;;;;;;;12.51;82.19;99052.19;5032493;28;20049;-76
2023/01/11 09:34:20;;;;;;;11.88;6.30;;;;;;;12.51;82.29;99050.41;5032316;28;20554;-76
2023/01/11 09:36:47;;;;;;;11.90;6.32;;;;;;;12.52;82.15;99051.22;5014283;28;20057;-77
2023/01/11 09:39:17;;;;;;;11.38;6.15;;;;;;;12.53;82.33;99049.44;5032566;28;20156;-76
2023/01/11 09:41:59;;;;;;;8.77;6.15;;;;;;;12.51;81.68;99046.91;5032394;28;20104;-76
2023/01/11 09:44:28;;;;;;;9.65;5.53;;;;;;;12.54;82.03;99044.03;5032310;28;20133;-76
2023/01/11 09:47:12;;;;;;;12.15;5.78;;;;;;;12.50;81.62;99038.16;5031856;28;20061;-76
2023/01/11 09:49:43;;;;;;;11.07;5.80;;;;;;;12.54;82.18;99054.59;5031989;28;20060;-77
2023/01/11 09:52:27;;;;;;;13.30;5.53;;;;;;;12.50;81.38;99053.16;5032228;28;20053;-77
2023/01/11 09:54:57;;;;;;;9.05;5.93;;;;;;;12.53;81.57;99058.22;5031913;28;20053;-76
2023/01/11 09:57:52;;;;;;;11.10;5.10;;;;;;;12.49;81.08;99052.31;5031725;28;20493;-77
2023/01/11 10:00:40;;;;;;;8.57;4.35;;;;;;;12.49;80.83;99064.69;5031873;28;20053;-76
2023/01/11 10:03:25;;;;;;;12.60;3.97;;;;;;;12.49;80.63;99083.97;5031769;28;20141;-76
2023/01/11 10:05:55;;;;;;;12.10;4.45;;;;;;;12.50;81.33;99066.34;5031536;28;20068;-76
2023/01/11 10:08:41;;;;;;;9.82;4.05;;;;;;;12.45;80.54;99087.00;5031837;28;20148;-77
2023/01/11 10:11:50;;;;;;;10.02;3.80;;;;;;;12.44;80.94;99085.28;5031479;28;20056;-76
2023/01/11 10:14:58;;;;;;;8.88;3.90;;;;;;;12.45;81.09;99095.72;5032100;28;20060;-77
2023/01/11 10:18:12;;;;;;;10.20;3.67;;;;;;;12.41;80.61;99090.81;5031377;28;20575;-77
2023/01/11 10:21:09;;;;;;;10.82;3.67;;;;;;;12.43;81.05;99099.44;5031898;28;20056;-76
2023/01/11 10:23:45;;;;;;;12.48;4.55;;;;;;;12.42;81.19;99093.34;5031602;28;20085;-76
2023/01/11 10:26:27;;;;;;;9.73;4.00;;;;;;;12.41;80.81;99090.81;5031109;28;20513;-76
2023/01/11 10:34:44;;;;;;;14.20;3.50;;;;;;;12.42;80.77;99092.50;5030538;28;20049;-76
2023/01/11 10:43:03;;;;;;;7.95;2.35;;;;;;;12.33;79.76;99088.72;5030723;28;20049;-76
2023/01/11 10:45:48;;;;;;;8.32;2.90;;;;;;;12.34;80.20;99093.06;5013278;28;20053;-77
2023/01/11 10:48:40;;;;;;;13.65;3.40;;;;;;;12.29;79.64;99096.06;5031111;28;20053;-76
2023/01/11 10:51:33;;;;;;;9.77;3.58;;;;;;;12.28;79.81;99094.38;5013251;28;20053;-77
2023/01/11 10:54:12;;;;;;;8.50;3.25;;;;;;;12.28;79.93;99107.56;5031240;28;20097;-76
2023/01/11 10:57:12;;;;;;;20.67;4.30;;;;;;;12.25;79.51;99108.63;5030192;28;20053;-77
2023/01/11 11:00:06;;;;;;;12.40;3.63;;;;;;;12.23;79.15;99115.81;5030661;28;20144;-77
2023/01/11 11:02:51;;;;;;;11.23;3.17;;;;;;;12.26;80.48;99125.28;5030696;28;20418;-77
2023/01/11 11:05:32;;;;;;;15.48;3.83;;;;;;;12.22;79.93;99123.84;5030597;28;20061;-76
2023/01/11 11:08:12;;;;;;;14.45;3.42;;;;;;;12.17;79.32;99111.00;5030548;28;20080;-76
2023/01/11 11:10:49;;;;;;;15.43;3.92;;;;;;;12.18;79.81;99117.13;5030508;28;20052;-76
2023/01/11 11:13:40;;;;;;;12.65;3.20;;;;;;;12.12;79.10;99115.78;5029157;28;20050;-77
2023/01/11 11:16:20;;;;;;;9.50;2.55;;;;;;;12.14;79.88;99123.59;5030105;28;20214;-76
2023/01/11 11:18:52;;;;;;;11.07;2.47;;;;;;;12.08;79.21;99111.69;5030415;28;20072;-77
2023/01/11 11:21:40;;;;;;;12.37;2.83;;;;;;;12.03;78.38;99119.91;5030582;28;20053;-77
2023/01/11 11:24:18;;;;;;;9.65;2.58;;;;;;;12.04;78.83;99123.38;5030528;28;20354;-76
2023/01/11 11:26:52;;;;;;;12.00;2.88;;;;;;;12.04;79.34;99123.38;5030266;28;20057;-77
2023/01/11 11:29:21;;;;;;;11.43;2.78;;;;;;;12.04;79.82;99133.94;5030442;28;20057;-76
2023/01/11 11:31:49;;;;;;;10.05;2.60;;;;;;;12.04;80.09;99131.31;5012896;28;20053;-76
2023/01/11 11:34:19;;;;;;;11.02;2.67;;;;;;;12.01;79.90;99135.00;5030552;28;20120;-77
2023/01/11 11:36:49;;;;;;;7.68;2.65;;;;;;;12.01;79.82;99135.00;5030061;28;20462;-77
2023/01/11 11:39:21;;;;;;;15.25;3.05;;;;;;;12.01;79.03;99137.66;5030435;28;20057;-77
2023/01/11 11:41:55;;;;;;;14.23;3.85;;;;;;;12.03;80.17;99132.25;5030196;28;20151;-77
2023/01/11 11:44:25;;;;;;;11.20;3.33;;;;;;;12.06;81.70;99130.25;5024723;28;20120;-76
2023/01/11 11:46:56;;;;;;;13.55;2.95;;;;;;;12.11;80.38;99133.41;5024388;28;20137;-76
2023/01/11 11:49:23;;;;;;;9.82;3.00;;;;;;;12.27;84.17;99132.28;5034172;28;20512;-76
2023/01/11 11:51:51;;;;;;;14.50;3.88;;;;;;;12.46;85.63;99142.31;5033868;28;20045;-76
2023/01/11 11:54:35;;;;;;;12.55;3.00;;;;;;;12.70;86.18;99132.63;5033991;28;20049;-76
2023/01/11 11:57:23;;;;;;;8.52;2.55;;;;;;;12.90;78.15;99144.34;5034039;28;20058;-76
2023/01/11 12:00:20;;;;;;;14.88;2.90;;;;;;;13.08;78.96;99136.75;5033948;28;20532;-75
2023/01/11 12:02:55;;;;;;;16.88;3.13;;;;;;;13.21;78.05;99146.38;5033743;28;20061;-76
2023/01/11 12:05:22;;;;;;;11.23;3.17;;;;;;;13.30;79.22;99132.44;5034006;28;20061;-75
2023/01/11 12:07:50;;;;;;;12.23;2.78;;;;;;;13.32;77.11;99135.81;5033893;28;20061;-75
2023/01/11 12:10:26;;;;;;;16.55;2.33;;;;;;;13.28;75.19;99140.50;5016819;28;20057;-75
2023/01/11 12:13:01;;;;;;;13.15;3.13;;;;;;;13.26;75.33;99139.78;5033713;28;20481;-76
2023/01/11 12:15:29;;;;;;;8.60;2.40;;;;;;;13.39;82.00;99134.34;5033771;28;20053;-75
2023/01/11 12:18:35;;;;;;;8.90;2.60;;;;;;;13.57;74.62;99127.78;5033538;28;20490;-76
2023/01/11 12:21:08;;;;;;;9.68;2.35;;;;;;;13.88;76.79;99134.09;5004789;28;20057;-75
2023/01/11 12:23:35;;;;;;;13.25;2.40;;;;;;;14.19;80.98;99136.03;5013965;28;20100;-76
2023/01/11 12:26:08;;;;;;;11.88;2.47;;;;;;;14.42;77.22;99141.22;5013528;28;20144;-76
2023/01/11 12:28:53;;;;;;;;;;;;;;;14.56;70.75;99148.88;5014201;28;20054;-76
2023/01/11 12:31:34;;;;;;;9.40;1.90;;;;;;;14.61;69.73;99151.09;5013527;28;19976;-76
2023/01/11 12:34:16;;;;;;;10.43;2.50;;;;;;;14.51;69.73;99151.06;5015371;28;20148;-76
2023/01/11 12:40:18;;;;;;;10.45;2.20;;;;;;;14.02;66.04;99148.00;5010587;28;20053;-75
2023/01/11 12:43:22;;;;;;;10.73;2.33;;;;;;;13.68;67.61;99144.47;5011795;28;20069;-75
2023/01/11 12:46:03;;;;;;;11.98;2.72;;;;;;;13.43;69.02;99149.00;4984360;28;20066;-76